Terminal Aerodrome Forecast
Issued by NWS

Home | Current Version | Previous Version | Text Only | Print | Product List | Glossary On
Versions: 1 2 3 4 5 6 7 8 9 10 11 12 13 14 15 16 17 18 19 20
082
FTUS41 KPHI 222325
TAFMIV
TAF
KMIV 222325Z 2300/2324 VRB03KT P6SM OVC007
     FM230300 VRB02KT 3SM BR OVC005
     FM231200 03008KT P6SM SCT020 OVC150
     FM231900 07008KT 3SM -SHRA BKN025 OVC150=

USA.gov is the U.S. government's official web portal to all federal, state and local government web resources and services.